Latest Coastal Weather Observations for Gove Airport

IDD60701

Issued at 11:41 am CST Friday 24 March 2017 (issued every 10 minutes, with the page automatically refreshed every 10 minutes)

About coastal observations | Map of coastal stations | Coastal observations for NT | Marine services | Other Formats
Station Details ID: 014508 Name: GOVE AIRPORT Lat: -12.27 Lon: 136.82 Height: 51.6 m
Data from the previous 72 hours. | See also: Recent months at Gove Airport
Date/Time
CST
Temp
°C
Wind Pressure Rain since
9am
mm
Weather Cloud Vis
km
Sea
Height
m
Swell
Dir  Spd
kts
Gust
kts
hPa Trend Height
m
Period
s
Dir
24/11:30am 31.5 NNW 11 17 1009.5 - 0.0 - Mostly clear 10 - - - -
24/11:00am 31.5 NNW 13 17 1009.7 - 0.0 - Mostly clear 10 - - - -
24/10:30am 31.4 NNW 14 19 1010.0 - 0.0 - Mostly clear 10 - - - -
24/10:00am 31.0 NW 10 16 1010.1 - 0.0 - Partly cloudy 10 - - - -
24/09:30am 29.9 NW 10 13 1010.3 - 0.0 - Partly cloudy 10 - - - -
24/09:00am 29.9 NNW 8 11 1010.4 R 0.0 - Cloudy 10 - - - -
24/08:30am 29.9 N 7 8 1010.1 - 0.0 - Partly cloudy 10 - - - -
24/08:00am 29.0 WNW 3 5 1009.7 - 0.0 - Partly cloudy 10 - - - -
24/07:30am 28.4 CALM 0 0 1009.4 - 0.0 - - 10 - - - -
24/07:00am 27.5 CALM 0 0 1009.1 - 0.0 - - 10 - - - -
24/06:30am 26.4 NNW 5 6 1008.9 - 0.0 - - 10 - - - -
24/06:00am 26.3 CALM 0 0 1008.7 F 0.0 - Cloudy 10 - - - -
24/05:30am 26.5 NNW 2 4 1008.6 - 0.0 - - 10 - - - -
24/05:00am 26.3 WNW 3 4 1008.4 - 0.0 - - 10 - - - -
24/04:30am 26.0 SW 1 4 1008.3 - 0.0 - - 10 - - - -
24/04:00am 26.3 CALM 0 0 1008.4 - 0.0 - - 10 - - - -
24/03:30am 26.3 SW 3 4 1008.3 - 0.0 - - 10 - - - -
24/03:00am 26.5 WNW 3 4 1008.3 F 0.0 - Mostly cloudy 10 - - - -
24/02:30am 26.4 W 4 4 1008.4 - 0.0 - - 10 - - - -
24/02:00am 26.5 WSW 4 4 1008.8 - 0.0 - Partly cloudy 10 - - - -
24/01:30am 26.5 SW 4 5 1008.9 - 0.0 - Partly cloudy 10 - - - -
24/01:00am 26.4 SW 3 4 1009.1 - 0.0 - - 10 - - - -
24/12:30am 26.7 CALM 0 0 1009.6 - 0.0 - - 10 - - - -
24/12:00am 26.7 CALM 0 0 1009.9 R 0.0 - Mostly cloudy 10 - - - -
 
Date/Time
CST
Temp
°C
Wind Pressure Rain since
9am
mm
Weather Cloud Vis
km
Sea
Height
m
Swell
Dir  Spd
kts
Gust
kts
hPa Trend Height
m
Period
s
Dir
23/11:30pm 27.0 CALM 0 0 1010.1 - 0.0 - - 10 - - - -
23/11:00pm 26.6 CALM 0 0 1010.2 - 0.0 - - 10 - - - -
23/10:30pm 26.5 CALM 0 0 1010.4 - 0.0 - - 10 - - - -
23/10:00pm 26.2 CALM 0 0 1010.3 - 0.0 - - 10 - - - -
23/09:30pm 26.6 CALM 0 0 1009.8 - 0.0 - - 10 - - - -
23/09:00pm 26.5 CALM 0 3 1009.5 F 0.0 - - 10 - - - -
23/08:30pm 26.4 CALM 0 4 1009.2 - 0.0 - - 10 - - - -
23/08:00pm 26.6 CALM 0 0 1009.0 - 0.0 - - 10 - - - -
23/07:30pm 27.0 CALM 0 0 1008.5 - 0.0 - - 10 - - - -
23/07:00pm 27.4 CALM 0 4 1008.2 - 0.0 - - 7 - - - -
23/06:30pm 27.9 WSW 4 6 1008.0 - 0.0 - Partly cloudy 10 - - - -
23/06:00pm 28.6 WSW 4 5 1007.8 S 0.0 - Cloudy 10 - - - -
23/05:30pm 29.4 NNW 7 8 1007.6 - 0.0 - - 10 - - - -
23/05:00pm 29.5 N 7 9 1007.3 - 0.0 - - 10 - - - -
23/04:30pm 29.5 N 7 8 1007.1 - 0.0 - Mostly clear 10 - - - -
23/04:00pm 30.0 NNW 11 14 1007.2 - 0.0 - Mostly clear 10 - - - -
23/03:30pm 31.2 N 10 13 1007.1 - 0.0 - Mostly clear 10 - - - -
23/03:00pm 31.6 N 11 16 1007.4 F 0.0 - Partly cloudy 10 - - - -
23/02:30pm 32.0 N 9 13 1007.8 - 0.0 - Mostly clear 10 - - - -
23/02:00pm 32.3 NNW 9 14 1008.0 - 0.0 - Mostly clear 10 - - - -
23/01:30pm 32.0 N 11 14 1008.6 - 0.0 - Mostly clear 10 - - - -
23/01:00pm 31.2 N 10 14 1008.9 - 0.0 - Mostly clear 10 - - - -
23/12:30pm 31.9 N 10 14 1009.2 - 0.0 - Mostly clear 10 - - - -
23/12:00pm 31.7 N 10 14 1009.5 S 0.0 - Partly cloudy 10 - - - -
23/11:30am 31.0 NNW 8 12 1010.0 - 0.0 - Mostly clear 10 - - - -
23/11:00am 30.2 NNW 9 11 1010.4 - 0.0 - Partly cloudy 10 - - - -
23/10:30am 29.6 NW 6 10 1010.5 - 0.0 - Partly cloudy 10 - - - -
23/10:00am 30.1 NW 6 9 1010.5 - 0.0 - Partly cloudy 10 - - - -
23/09:30am 30.5 NNW 8 11 1010.6 - 0.0 - Partly cloudy 10 - - - -
23/09:00am 30.0 NNW 6 8 1010.5 F 0.8 - Partly cloudy 10 - - - -
23/08:30am 29.1 NNW 5 8 1010.3 - 0.8 - Mostly clear 10 - - - -
23/08:00am 28.4 NNW 6 8 1010.4 - 0.8 - - 10 - - - -
23/07:30am 27.6 NNW 4 5 1009.8 - 0.8 - - 10 - - - -
23/07:00am 25.7 NW 3 4 1009.8 - 0.8 - - 10 - - - -
23/06:30am 25.2 CALM 0 0 1009.7 - 0.8 - - 10 - - - -
23/06:00am 25.1 CALM 0 0 1009.1 S 0.8 - - 10 - - - -
23/05:30am 25.1 SSE 3 3 1008.6 - 0.8 - - 10 - - - -
23/05:00am 25.2 CALM 0 0 1008.3 - 0.8 - - 10 - - - -
23/04:30am 25.5 CALM 0 0 1008.3 - 0.8 - - 10 - - - -
23/04:00am 25.4 CALM 0 0 1008.4 - 0.8 - - 10 - - - -
23/03:30am 25.2 CALM 0 0 1008.5 - 0.8 - - 10 - - - -
23/03:00am 25.3 CALM 0 0 1008.5 S 0.8 - Cloudy 10 - - - -
23/02:30am 25.2 CALM 0 0 1008.5 - 0.8 - - 10 - - - -
23/02:00am 25.3 CALM 0 0 1008.7 - 0.8 - - 10 - - - -
23/01:30am 25.5 CALM 0 0 1009.2 - 0.8 - - 10 - - - -
23/01:00am 25.7 CALM 0 0 1009.6 - 0.8 - - 10 - - - -
23/12:30am 25.6 SSW 4 5 1009.8 - 0.8 - - 10 - - - -
23/12:00am 25.7 CALM 0 0 1009.9 R 0.8 - - 10 - - - -
 
Date/Time
CST
Temp
°C
Wind Pressure Rain since
9am
mm
Weather Cloud Vis
km
Sea
Height
m
Swell
Dir  Spd
kts
Gust
kts
hPa Trend Height
m
Period
s
Dir
22/11:30pm 26.0 CALM 0 0 1010.1 - 0.8 - - 10 - - - -
22/11:00pm 26.1 CALM 0 0 1010.0 - 0.8 - - 10 - - - -
22/10:30pm 26.4 CALM 0 0 1009.9 - 0.8 - - 10 - - - -
22/10:00pm 26.6 CALM 0 0 1010.2 - 0.8 - - 10 - - - -
22/09:30pm 26.6 CALM 0 0 1010.1 - 0.8 - - 10 - - - -
22/09:00pm 26.6 WSW 3 4 1009.6 R 0.8 - Mostly clear 10 - - - -
22/08:30pm 26.6 WSW 3 4 1009.2 - 0.8 - - 10 - - - -
22/08:00pm 26.8 CALM 0 0 1008.8 - 0.8 - - 10 - - - -
22/07:30pm 27.2 CALM 0 0 1008.2 - 0.8 - - 10 - - - -
22/07:00pm 27.7 CALM 0 0 1007.8 - 0.8 - - 10 - - - -
22/06:30pm 28.5 N 4 5 1007.5 - 0.8 - - 10 - - - -
22/06:00pm 28.6 WNW 5 7 1007.7 F 0.8 Recent precip. Mostly clear 10 - - - -
22/05:36pm 29.2 WNW 6 9 1007.8 - 0.8 - Partly cloudy 10 - - - -
22/05:30pm 29.5 WNW 6 10 1007.8 - 0.8 - Partly cloudy 9 - - - -
22/05:11pm 29.9 NW 8 12 1007.8 - 0.2 - Partly cloudy 5 - - - -
22/05:00pm 30.9 NW 8 11 1007.5 - 0.0 - Partly cloudy 10 - - - -
22/04:30pm 30.0 N 10 13 1007.4 - 0.0 - Partly cloudy 10 - - - -
22/04:00pm 30.9 N 12 15 1007.1 - 0.0 - Mostly clear 10 - - - -
22/03:30pm 31.2 N 11 14 1006.9 - 0.0 - Mostly clear 10 - - - -
22/03:00pm 31.1 N 10 13 1007.5 F 0.0 - Partly cloudy 10 - - - -
22/02:30pm 31.4 NNE 10 14 1007.5 - 0.0 - Mostly clear 10 - - - -
22/02:00pm 31.1 N 10 15 1007.8 - 0.0 - Mostly clear 10 - - - -
22/01:30pm 31.4 N 10 14 1008.3 - 0.0 - Mostly clear 10 - - - -
22/01:00pm 31.4 N 11 13 1008.6 - 0.0 - Mostly clear 10 - - - -
22/12:30pm 31.7 N 9 14 1009.1 - 0.0 - Mostly clear 10 - - - -
22/12:00pm 31.8 NNW 8 12 1009.7 S 0.0 - Mostly clear 10 - - - -
22/11:30am 31.0 NNW 9 13 1010.1 - 0.0 - Mostly clear 10 - - - -
22/11:00am 31.0 NNW 10 14 1010.3 - 0.0 - Mostly clear 10 - - - -
22/10:30am 29.4 WNW 6 8 1010.6 - 0.0 - Partly cloudy 10 - - - -
22/10:00am 29.6 NW 5 8 1010.9 - 0.0 - Partly cloudy 10 - - - -
22/09:30am 29.0 WNW 3 5 1010.9 - 0.0 - Partly cloudy 10 - - - -
22/09:00am 28.6 SW 4 5 1010.7 S 0.6 - Partly cloudy 10 - - - -
22/08:30am 28.4 NW 5 8 1010.4 - 0.6 - Partly cloudy 10 - - - -
22/08:00am 28.2 NNW 5 6 1010.1 - 0.6 - Partly cloudy 10 - - - -
22/07:30am 26.7 NNW 3 4 1009.7 - 0.6 - Cloudy 10 - - - -
22/07:00am 25.3 W 1 4 1009.4 - 0.6 - Partly cloudy 10 - - - -
22/06:30am 25.2 CALM 0 0 1009.1 - 0.6 - - 10 - - - -
22/06:00am 25.2 CALM 0 0 1009.1 R 0.6 - Cloudy 10 - - - -
22/05:30am 25.2 CALM 0 0 1008.8 - 0.6 - - 10 - - - -
22/05:00am 25.4 CALM 0 0 1008.7 - 0.6 - - 10 - - - -
22/04:30am 25.3 CALM 0 0 1008.5 - 0.6 - - 10 - - - -
22/04:00am 25.3 W 1 3 1008.5 - 0.6 - - 10 - - - -
22/03:30am 25.1 CALM 0 0 1008.5 - 0.6 - - 10 - - - -
22/03:00am 24.9 CALM 0 0 1008.3 F 0.6 - Cloudy 10 - - - -
22/02:30am 25.0 CALM 0 0 1008.5 - 0.6 - - 10 - - - -
22/02:00am 25.3 CALM 0 0 1008.8 - 0.6 - - 10 - - - -
22/01:30am 25.4 CALM 0 0 1009.1 - 0.6 - - 10 - - - -
22/01:00am 25.5 CALM 0 0 1009.4 - 0.6 - - 10 - - - -
22/12:30am 25.7 CALM 0 0 1009.7 - 0.6 - - 10 - - - -
22/12:00am 25.7 SW 2 5 1010.0 R 0.6 - - 10 - - - -
 
Date/Time
CST
Temp
°C
Wind Pressure Rain since
9am
mm
Weather Cloud Vis
km
Sea
Height
m
Swell
Dir  Spd
kts
Gust
kts
hPa Trend Height
m
Period
s
Dir
21/11:30pm 26.0 CALM 0 0 1010.2 - 0.6 - - 10 - - - -
21/11:00pm 26.0 CALM 0 0 1010.3 - 0.6 - Partly cloudy 10 - - - -
21/10:59pm 25.9 CALM 0 0 1010.3 - 0.6 - Partly cloudy 10 - - - -
21/10:45pm 26.0 CALM 0 0 1010.4 - 0.6 - Partly cloudy 10 - - - -
21/10:30pm 26.2 CALM 0 0 1010.3 - 0.6 - Partly cloudy 10 - - - -
21/10:00pm 26.4 CALM 0 0 1010.2 - 0.6 - - 10 - - - -
21/09:30pm 26.4 CALM 0 0 1010.0 - 0.6 - - 10 - - - -
21/09:00pm 26.6 W 2 3 1009.6 R 0.6 - Cloudy 10 - - - -
21/08:30pm 26.9 WNW 1 4 1009.4 - 0.6 - - 10 - - - -
21/08:00pm 27.0 WNW 4 6 1009.1 - 0.6 - - 10 - - - -
21/07:30pm 27.3 NW 3 4 1008.5 - 0.6 - Partly cloudy 10 - - - -
21/07:00pm 27.6 NW 3 5 1008.5 - 0.6 - Partly cloudy 10 - - - -
21/06:30pm 27.9 N 4 5 1008.0 - 0.6 - Partly cloudy 10 - - - -
21/06:00pm 28.2 NNE 5 6 1007.7 R 0.6 - Partly cloudy 10 - - - -
21/05:30pm 28.5 NNE 6 8 1007.5 - 0.6 - Partly cloudy 10 - - - -
21/05:00pm 29.0 N 6 8 1007.1 - 0.6 - - 10 - - - -
21/04:30pm 29.5 ENE 3 7 1007.0 - 0.4 - Partly cloudy 10 - - - -
21/04:07pm 29.2 SE 2 5 1007.0 - 0.4 - Partly cloudy 10 - - - -
21/04:00pm 28.9 SSE 4 5 1007.0 - 0.4 - Partly cloudy 10 - - - -
21/03:30pm 28.1 SSW 3 5 1007.3 - 0.4 - Partly cloudy 10 - - - -
21/03:00pm 28.0 CALM 0 0 1007.2 F 0.4 - Mostly clear 10 - - - -
21/02:30pm 26.9 NE 4 5 1007.2 - 0.4 - Mostly clear 10 - - - -
21/02:00pm 26.0 S 4 7 1008.0 - 0.4 Showers Mostly clear 10 - - - -
21/01:46pm 26.2 S 7 11 1008.3 - 0.4 - Partly cloudy 6 - - - -
21/01:30pm 27.0 SSW 7 10 1008.5 - 0.2 - Mostly clear 10 - - - -
21/01:00pm 30.3 N 7 10 1008.6 - 0.2 - Mostly clear 10 - - - -
21/12:30pm 30.4 NNE 7 10 1009.1 - 0.2 - Partly cloudy 10 - - - -
21/12:00pm 30.6 NE 6 8 1009.4 F 0.2 Recent precip. Cloudy 10 - - - -

Other Formats:

Comma delimited format used in spreadsheet applications
http://www.bom.gov.au/fwo/IDD60701/IDD60701.94150.axf

JavaScript Object Notation format (JSON) in row-major order
http://www.bom.gov.au/fwo/IDD60701/IDD60701.94150.json